European Seaway — MPDG3 — position and weather

sailwx.info

Track history (hours):
 
Tides and Currents Weather Stations Pressure Air Temp Water Temp Dewpoint Dewpoint Depression Visibility Wind Speed Wind Dir Waves Ship Positions

European Seaway

Operator: P & O Ferries

Last reported at 2017-Feb-23 02:33 UTC. Time now 2017-Feb-23 02:33 UTC.
Position N 51°07' E 001°20'.

Length 179 m; draft 6.2 m.

Type: Passenger vessel. MMSI: 232001040.

Date/timePositionNaut miles runAvg speedWind from/ knotsBaromVisibWave heightAir tempDewpointWater temp
2017-Feb-23 02:33N 51°07' E 001°20'0 0.1
2017-Feb-23 01:33N 51°07' E 001°20'8 8.2
2017-Feb-23 00:33N 51°04' E 001°32'1413.6
2017-Feb-22 23:34N 50°58' E 001°52'0 0.0
2017-Feb-22 22:34N 50°58' E 001°52'3 2.9
2017-Feb-22 21:33N 50°58' E 001°47'1818.1
2017-Feb-22 20:33N 51°07' E 001°22'1 1.2
2017-Feb-22 19:31N 51°07' E 001°20'1010.4
2017-Feb-22 18:33N 51°03' E 001°35'1211.9
2017-Feb-22 17:33N 50°58' E 001°52'2 2.1
2017-Feb-22 16:33N 50°58' E 001°48'1817.9
2017-Feb-22 15:33N 51°06' E 001°23'2 2.1
2017-Feb-22 14:33N 51°07' E 001°20'1212.5
2017-Feb-22 13:33N 51°02' E 001°38'10 9.6
2017-Feb-22 12:33N 50°58' E 001°52'6 6.0
2017-Feb-22 11:33N 50°58' E 001°42'16 8.0
2017-Feb-22 09:33N 51°07' E 001°21'1616.3
2017-Feb-22 08:33N 50°59' E 001°44'5 5.1
2017-Feb-22 07:33N 50°58' E 001°52'6 5.6
2017-Feb-22 06:33N 50°58' E 001°43'1716.8
2017-Feb-22 05:33N 51°07' E 001°20'0 0.2
2017-Feb-22 04:33N 51°07' E 001°20'1010.1
2017-Feb-22 03:33N 51°03' E 001°35'1211.8
2017-Feb-22 02:33N 50°58' E 001°52'0 0.1
2017-Feb-22 01:33N 50°58' E 001°52'0 0.0
2017-Feb-22 00:33N 50°58' E 001°52'0 0.0
2017-Feb-21 23:33N 50°58' E 001°52'0 0.0
2017-Feb-21 22:33N 50°58' E 001°52'0 0.0
2017-Feb-21 21:33N 50°58' E 001°52'2 1.6
2017-Feb-21 20:33N 50°58' E 001°49'1918.8
2017-Feb-21 19:34N 51°07' E 001°22'2 1.6
2017-Feb-21 18:33N 51°07' E 001°20'1313.2
2017-Feb-21 17:34N 51°01' E 001°38'9 8.9
2017-Feb-21 16:33N 50°58' E 001°52'6 6.4
2017-Feb-21 15:34N 50°59' E 001°42'1616.0
2017-Feb-21 14:33N 51°07' E 001°20'1 1.2
2017-Feb-21 13:33N 51°07' E 001°22'1918.6
2017-Feb-21 12:34N 50°58' E 001°48'2 2.4
2017-Feb-21 11:32N 50°58' E 001°52'1413.9
2017-Feb-21 10:33N 51°03' E 001°31'9 8.6
2017-Feb-21 09:33N 51°07' E 001°20'8 8.4
2017-Feb-21 08:33N 51°03' E 001°32'1413.5
2017-Feb-21 07:33N 50°58' E 001°52'3 3.4
2017-Feb-21 06:33N 50°58' E 001°46'1717.3
2017-Feb-21 05:33N 51°07' E 001°22'2 1.7
2017-Feb-21 04:33N 51°07' E 001°20'1010.3
2017-Feb-21 03:33N 51°03' E 001°35'1211.7
2017-Feb-21 02:34N 50°58' E 001°52'0 0.0
2017-Feb-21 01:33N 50°58' E 001°52'0 0.0
2017-Feb-21 00:34N 50°58' E 001°52'0 0.0
2017-Feb-20 23:33N 50°58' E 001°52'0 0.0
2017-Feb-20 22:33N 50°58' E 001°52'0 0.0
2017-Feb-20 21:34N 50°58' E 001°52'0 0.4
2017-Feb-20 20:33N 50°58' E 001°51'1717.5
2017-Feb-20 19:34N 51°06' E 001°26'4 4.1
2017-Feb-20 18:33N 51°07' E 001°20'1212.1
2017-Feb-20 17:33N 51°03' E 001°38'10 9.6
2017-Feb-20 16:33N 50°58' E 001°51'5 5.1
2017-Feb-20 15:33N 50°58' E 001°43'1717.1
2017-Feb-20 14:33N 51°07' E 001°20'2 1.9
2017-Feb-20 13:33N 51°07' E 001°23'1918.8
2017-Feb-20 12:33N 50°58' E 001°50'1 0.9
2017-Feb-20 11:33N 50°58' E 001°51'1616.1
2017-Feb-20 10:33N 51°04' E 001°27'6 5.5
2017-Feb-20 09:33N 51°07' E 001°20'1010.5
2017-Feb-20 08:33N 51°03' E 001°36'1111.5
2017-Feb-20 07:33N 50°58' E 001°52'0 0.0
2017-Feb-20 06:33N 50°58' E 001°52'0 0.0
2017-Feb-20 05:33N 50°58' E 001°52'0 0.0
2017-Feb-20 04:33N 50°58' E 001°52'0 0.0
2017-Feb-20 03:33N 50°58' E 001°52'0 0.0
2017-Feb-20 02:33N 50°58' E 001°52'0 0.0
2017-Feb-20 01:33N 50°58' E 001°52'0 0.0
2017-Feb-20 00:33N 50°58' E 001°52'0 0.0
2017-Feb-19 23:33N 50°58' E 001°52'0 0.0
2017-Feb-19 22:33N 50°58' E 001°52'0 0.0
2017-Feb-19 21:33N 50°58' E 001°52'0 0.0
2017-Feb-19 20:33N 50°58' E 001°52'0 0.0
2017-Feb-19 19:33N 50°58' E 001°52'0 0.0
2017-Feb-19 18:33N 50°58' E 001°52'0 0.0
2017-Feb-19 17:33N 50°58' E 001°52'7 7.0
2017-Feb-19 16:33N 50°59' E 001°41'1613.8
2017-Feb-19 15:26N 51°07' E 001°20'910.4
2017-Feb-19 14:33N 51°03' E 001°33'1312.8
2017-Feb-19 13:33N 50°58' E 001°52'0 0.0
2017-Feb-19 12:33N 50°58' E 001°52'0 0.0
2017-Feb-19 11:33N 50°58' E 001°52'0 0.3
2017-Feb-19 10:33N 50°58' E 001°52'0 0.0
2017-Feb-19 09:33N 50°58' E 001°52'0 0.0
2017-Feb-19 08:33N 50°58' E 001°52'0 0.0
2017-Feb-19 07:33N 50°58' E 001°52'0 0.0
2017-Feb-19 06:33N 50°58' E 001°52'0 0.0
2017-Feb-19 05:33N 50°58' E 001°52'0 0.0
2017-Feb-19 04:34N 50°58' E 001°52'0 0.0
2017-Feb-19 03:33N 50°58' E 001°52'0 0.0
2017-Feb-19 02:33N 50°58' E 001°52'0 0.0
2017-Feb-19 01:33N 50°58' E 001°52'0 0.0
2017-Feb-19 00:33N 50°58' E 001°52'0 0.0
2017-Feb-18 23:33N 50°58' E 001°52'0 0.0
2017-Feb-18 22:33N 50°58' E 001°52'0 0.0
2017-Feb-18 21:33N 50°58' E 001°52'1111.1
2017-Feb-18 20:33N 50°59' E 001°35'1211.9
2017-Feb-18 19:32N 51°07' E 001°20'6 6.1
2017-Feb-18 18:34N 51°06' E 001°29'1615.7
2017-Feb-18 17:33N 50°58' E 001°51'0 0.4
2017-Feb-18 16:33N 50°58' E 001°52'1717.4
2017-Feb-18 15:34N 51°05' E 001°26'5 4.6
2017-Feb-18 14:33N 51°07' E 001°20'1414.1
2017-Feb-18 13:33N 50°59' E 001°38'8 8.5
2017-Feb-18 12:34N 50°58' E 001°52'0 0.0
2017-Feb-18 11:33N 50°58' E 001°52'0 0.0
2017-Feb-18 10:34N 50°58' E 001°52'0 0.0
2017-Feb-18 09:33N 50°58' E 001°52'0 0.0
2017-Feb-18 08:33N 50°58' E 001°52'0 0.0
2017-Feb-18 07:33N 50°58' E 001°52'0 0.0
2017-Feb-18 06:33N 50°58' E 001°52'0 0.0
2017-Feb-18 05:34N 50°58' E 001°52'0 0.0
2017-Feb-18 04:33N 50°58' E 001°52'0 0.0
2017-Feb-18 03:33N 50°58' E 001°52'0 0.0
2017-Feb-18 02:33N 50°58' E 001°52'0 0.0
2017-Feb-18 01:33N 50°58' E 001°52'0 0.0
2017-Feb-18 00:33N 50°58' E 001°52'0 0.0
2017-Feb-17 23:34N 50°58' E 001°52'0 0.0
2017-Feb-17 22:33N 50°58' E 001°52'9 9.0
2017-Feb-17 21:33N 51°01' E 001°38'1313.1
2017-Feb-17 20:34N 51°07' E 001°20'0 0.0
2017-Feb-17 19:33N 51°07' E 001°20'9 9.0
2017-Feb-17 18:33N 51°05' E 001°34'1313.1
2017-Feb-17 17:33N 50°58' E 001°52'0 0.4
2017-Feb-17 16:33N 50°58' E 001°51'1818.2
2017-Feb-17 15:33N 51°05' E 001°25'3 3.5
2017-Feb-17 14:34N 51°07' E 001°20'1413.8
2017-Feb-17 13:34N 51°01' E 001°39'8 8.3
2017-Feb-17 12:33N 50°58' E 001°52'0 0.0
2017-Feb-17 11:33N 50°58' E 001°52'0 0.0
2017-Feb-17 10:33N 50°58' E 001°52'0 0.0
2017-Feb-17 09:33N 50°58' E 001°52'0 0.0
2017-Feb-17 08:33N 50°58' E 001°52'0 0.0
2017-Feb-17 07:33N 50°58' E 001°52'0 0.0
2017-Feb-17 06:33N 50°58' E 001°52'0 0.0
2017-Feb-17 05:33N 50°58' E 001°52'0 0.0
2017-Feb-17 04:33N 50°58' E 001°52'0 0.0
2017-Feb-17 03:33N 50°58' E 001°52'0 0.0
2017-Feb-17 02:33N 50°58' E 001°52'0 0.0
2017-Feb-17 01:33N 50°58' E 001°52'0 0.0
2017-Feb-17 00:34N 50°58' E 001°52'0 0.0
2017-Feb-16 23:33N 50°58' E 001°52'0 0.0
2017-Feb-16 22:33N 50°58' E 001°52'0 0.0
2017-Feb-16 21:33N 50°58' E 001°52'1211.7
2017-Feb-16 20:33N 51°01' E 001°34'11 8.8
2017-Feb-16 19:21N 51°07' E 001°20'6 8.0
2017-Feb-16 18:34N 51°05' E 001°29'1615.6
2017-Feb-16 17:33N 50°58' E 001°52'0 0.4
2017-Feb-16 16:33N 50°58' E 001°51'1717.4
2017-Feb-16 15:33N 51°04' E 001°25'4 4.1
2017-Feb-16 14:28N 51°07' E 001°20'1415.7
2017-Feb-16 13:33N 51°00' E 001°40'8 7.8
2017-Feb-16 12:33N 50°58' E 001°52'0 0.0
2017-Feb-16 11:33N 50°58' E 001°52'0 0.0
2017-Feb-16 10:33N 50°58' E 001°52'0 0.0
2017-Feb-16 09:33N 50°58' E 001°52'0 0.0
2017-Feb-16 08:33N 50°58' E 001°52'0 0.0
2017-Feb-16 07:33N 50°58' E 001°52'0 0.0
2017-Feb-16 06:33N 50°58' E 001°52'0 0.0
2017-Feb-16 05:33N 50°58' E 001°52'0 0.0
2017-Feb-16 04:33N 50°58' E 001°52'0 0.0
2017-Feb-16 03:33N 50°58' E 001°52'0 0.0
2017-Feb-16 02:33N 50°58' E 001°52'0 0.0
2017-Feb-16 01:33N 50°58' E 001°52'0 0.0
2017-Feb-16 00:33N 50°58' E 001°52'0 0.0
2017-Feb-15 23:33N 50°58' E 001°52'0 0.0
2017-Feb-15 22:33N 50°58' E 001°52'0 0.0
2017-Feb-15 21:33N 50°58' E 001°52'9 9.1
2017-Feb-15 20:33N 50°59' E 001°37'1410.8
2017-Feb-15 19:18N 51°07' E 001°20'4 5.2
2017-Feb-15 18:34N 51°06' E 001°26'1817.8
2017-Feb-15 17:33N 50°58' E 001°51'0 0.3
2017-Feb-15 16:33N 50°58' E 001°52'1515.2
2017-Feb-15 15:33N 51°03' E 001°29'4 2.0
2017-Feb-15 13:34N 51°07' E 001°25'1818.0
2017-Feb-15 12:33N 50°58' E 001°51'1 0.1
2017-Feb-15 04:33N 50°58' E 001°52'0 0.0
2017-Feb-15 03:34N 50°58' E 001°52'0 0.0
2017-Feb-15 02:33N 50°58' E 001°52'0 0.0
2017-Feb-15 01:33N 50°58' E 001°52'0 0.0
2017-Feb-15 00:33N 50°58' E 001°52'0 0.0
2017-Feb-14 23:34N 50°58' E 001°52'0 0.0
2017-Feb-14 22:33N 50°58' E 001°52'0 0.0
2017-Feb-14 21:33N 50°58' E 001°52'1111.1
2017-Feb-14 20:33N 51°00' E 001°34'1111.5
2017-Feb-14 19:33N 51°07' E 001°20'7 6.7
2017-Feb-14 18:34N 51°05' E 001°30'1515.2
2017-Feb-14 17:33N 50°58' E 001°52'2 2.0
2017-Feb-14 16:33N 50°58' E 001°48'1919.1
2017-Feb-14 15:33N 51°07' E 001°22'1 1.0
2017-Feb-14 14:29N 51°07' E 001°20'1415.1
2017-Feb-14 13:33N 51°01' E 001°39'8 8.1
2017-Feb-14 12:33N 50°58' E 001°52'0 0.0
2017-Feb-14 11:33N 50°58' E 001°52'0 0.0
2017-Feb-14 10:33N 50°58' E 001°52'0 0.0
2017-Feb-14 09:33N 50°58' E 001°52'0 0.0
2017-Feb-14 08:33N 50°58' E 001°52'0 0.0
2017-Feb-14 07:33N 50°58' E 001°52'0 0.0
2017-Feb-14 06:33N 50°58' E 001°52'0 0.0
2017-Feb-14 05:33N 50°58' E 001°52'0 0.0
2017-Feb-14 04:33N 50°58' E 001°52'0 0.0
2017-Feb-14 03:33N 50°58' E 001°52'0 0.0
2017-Feb-14 02:33N 50°58' E 001°52'0 0.0
2017-Feb-14 01:33N 50°58' E 001°52'0 0.0
2017-Feb-14 00:33N 50°58' E 001°52'0 0.0
2017-Feb-13 23:33N 50°58' E 001°52'0 0.0
2017-Feb-13 22:33N 50°58' E 001°52'5 4.8
2017-Feb-13 21:33N 50°58' E 001°44'1615.9
2017-Feb-13 20:34N 51°06' E 001°23'2 2.0
2017-Feb-13 19:33N 51°07' E 001°20'1212.4
2017-Feb-13 18:34N 51°02' E 001°37'10 9.6
2017-Feb-13 17:33N 50°58' E 001°52'9 8.6
2017-Feb-13 16:33N 50°60' E 001°38'1413.9
2017-Feb-13 15:33N 51°07' E 001°20'0 0.0
2017-Feb-13 14:34N 51°07' E 001°20'1414.3
2017-Feb-13 13:34N 51°01' E 001°40'8 7.6
2017-Feb-13 12:33N 50°58' E 001°51'0 0.3
2017-Feb-13 11:33N 50°58' E 001°52'0 0.0
2017-Feb-13 10:34N 50°58' E 001°52'0 0.0
2017-Feb-13 09:33N 50°58' E 001°52'0 0.0
2017-Feb-13 08:33N 50°58' E 001°52'0 0.0
2017-Feb-13 07:33N 50°58' E 001°52'0 0.0
2017-Feb-13 06:33N 50°58' E 001°52'0 0.0
2017-Feb-13 05:33N 50°58' E 001°52'0 0.0
2017-Feb-13 04:33N 50°58' E 001°52'0 0.0
2017-Feb-13 03:33N 50°58' E 001°52'0 0.0
2017-Feb-13 02:33N 50°58' E 001°52'  
Track history (hours):
 
Tides and Currents Weather Stations Pressure Air Temp Water Temp Dewpoint Dewpoint Depression Visibility Wind Speed Wind Dir Waves Ship Positions

European Seaway

Operator: P & O Ferries

Last reported at 2017-Feb-23 02:33 UTC. Time now 2017-Feb-23 02:33 UTC.
Position N 51°07' E 001°20'.

Length 179 m; draft 6.2 m.

Type: Passenger vessel. MMSI: 232001040.

Date/timePositionNaut miles runAvg speedWind from/ knotsBaromVisibWave heightAir tempDewpointWater temp
2017-Feb-23 02:33N 51°07' E 001°20'0 0.1
2017-Feb-23 01:33N 51°07' E 001°20'8 8.2
2017-Feb-23 00:33N 51°04' E 001°32'1413.6
2017-Feb-22 23:34N 50°58' E 001°52'0 0.0
2017-Feb-22 22:34N 50°58' E 001°52'3 2.9
2017-Feb-22 21:33N 50°58' E 001°47'1818.1
2017-Feb-22 20:33N 51°07' E 001°22'1 1.2
2017-Feb-22 19:31N 51°07' E 001°20'1010.4
2017-Feb-22 18:33N 51°03' E 001°35'1211.9
2017-Feb-22 17:33N 50°58' E 001°52'2 2.1
2017-Feb-22 16:33N 50°58' E 001°48'1817.9
2017-Feb-22 15:33N 51°06' E 001°23'2 2.1
2017-Feb-22 14:33N 51°07' E 001°20'1212.5
2017-Feb-22 13:33N 51°02' E 001°38'10 9.6
2017-Feb-22 12:33N 50°58' E 001°52'6 6.0
2017-Feb-22 11:33N 50°58' E 001°42'16 8.0
2017-Feb-22 09:33N 51°07' E 001°21'1616.3
2017-Feb-22 08:33N 50°59' E 001°44'5 5.1
2017-Feb-22 07:33N 50°58' E 001°52'6 5.6
2017-Feb-22 06:33N 50°58' E 001°43'1716.8
2017-Feb-22 05:33N 51°07' E 001°20'0 0.2
2017-Feb-22 04:33N 51°07' E 001°20'1010.1
2017-Feb-22 03:33N 51°03' E 001°35'1211.8
2017-Feb-22 02:33N 50°58' E 001°52'0 0.1
2017-Feb-22 01:33N 50°58' E 001°52'0 0.0
2017-Feb-22 00:33N 50°58' E 001°52'0 0.0
2017-Feb-21 23:33N 50°58' E 001°52'0 0.0
2017-Feb-21 22:33N 50°58' E 001°52'0 0.0
2017-Feb-21 21:33N 50°58' E 001°52'2 1.6
2017-Feb-21 20:33N 50°58' E 001°49'1918.8
2017-Feb-21 19:34N 51°07' E 001°22'2 1.6
2017-Feb-21 18:33N 51°07' E 001°20'1313.2
2017-Feb-21 17:34N 51°01' E 001°38'9 8.9
2017-Feb-21 16:33N 50°58' E 001°52'6 6.4
2017-Feb-21 15:34N 50°59' E 001°42'1616.0
2017-Feb-21 14:33N 51°07' E 001°20'1 1.2
2017-Feb-21 13:33N 51°07' E 001°22'1918.6
2017-Feb-21 12:34N 50°58' E 001°48'2 2.4
2017-Feb-21 11:32N 50°58' E 001°52'1413.9
2017-Feb-21 10:33N 51°03' E 001°31'9 8.6
2017-Feb-21 09:33N 51°07' E 001°20'8 8.4
2017-Feb-21 08:33N 51°03' E 001°32'1413.5
2017-Feb-21 07:33N 50°58' E 001°52'3 3.4
2017-Feb-21 06:33N 50°58' E 001°46'1717.3
2017-Feb-21 05:33N 51°07' E 001°22'2 1.7
2017-Feb-21 04:33N 51°07' E 001°20'1010.3
2017-Feb-21 03:33N 51°03' E 001°35'1211.7
2017-Feb-21 02:34N 50°58' E 001°52'0 0.0
2017-Feb-21 01:33N 50°58' E 001°52'0 0.0
2017-Feb-21 00:34N 50°58' E 001°52'0 0.0
2017-Feb-20 23:33N 50°58' E 001°52'0 0.0
2017-Feb-20 22:33N 50°58' E 001°52'0 0.0
2017-Feb-20 21:34N 50°58' E 001°52'0 0.4
2017-Feb-20 20:33N 50°58' E 001°51'1717.5
2017-Feb-20 19:34N 51°06' E 001°26'4 4.1
2017-Feb-20 18:33N 51°07' E 001°20'1212.1
2017-Feb-20 17:33N 51°03' E 001°38'10 9.6
2017-Feb-20 16:33N 50°58' E 001°51'5 5.1
2017-Feb-20 15:33N 50°58' E 001°43'1717.1
2017-Feb-20 14:33N 51°07' E 001°20'2 1.9
2017-Feb-20 13:33N 51°07' E 001°23'1918.8
2017-Feb-20 12:33N 50°58' E 001°50'1 0.9
2017-Feb-20 11:33N 50°58' E 001°51'1616.1
2017-Feb-20 10:33N 51°04' E 001°27'6 5.5
2017-Feb-20 09:33N 51°07' E 001°20'1010.5
2017-Feb-20 08:33N 51°03' E 001°36'1111.5
2017-Feb-20 07:33N 50°58' E 001°52'0 0.0
2017-Feb-20 06:33N 50°58' E 001°52'0 0.0
2017-Feb-20 05:33N 50°58' E 001°52'0 0.0
2017-Feb-20 04:33N 50°58' E 001°52'0 0.0
2017-Feb-20 03:33N 50°58' E 001°52'0 0.0
2017-Feb-20 02:33N 50°58' E 001°52'0 0.0
2017-Feb-20 01:33N 50°58' E 001°52'0 0.0
2017-Feb-20 00:33N 50°58' E 001°52'0 0.0
2017-Feb-19 23:33N 50°58' E 001°52'0 0.0
2017-Feb-19 22:33N 50°58' E 001°52'0 0.0
2017-Feb-19 21:33N 50°58' E 001°52'0 0.0
2017-Feb-19 20:33N 50°58' E 001°52'0 0.0
2017-Feb-19 19:33N 50°58' E 001°52'0 0.0
2017-Feb-19 18:33N 50°58' E 001°52'0 0.0
2017-Feb-19 17:33N 50°58' E 001°52'7 7.0
2017-Feb-19 16:33N 50°59' E 001°41'1613.8
2017-Feb-19 15:26N 51°07' E 001°20'910.4
2017-Feb-19 14:33N 51°03' E 001°33'1312.8
2017-Feb-19 13:33N 50°58' E 001°52'0 0.0
2017-Feb-19 12:33N 50°58' E 001°52'0 0.0
2017-Feb-19 11:33N 50°58' E 001°52'0 0.3
2017-Feb-19 10:33N 50°58' E 001°52'0 0.0
2017-Feb-19 09:33N 50°58' E 001°52'0 0.0
2017-Feb-19 08:33N 50°58' E 001°52'0 0.0
2017-Feb-19 07:33N 50°58' E 001°52'0 0.0
2017-Feb-19 06:33N 50°58' E 001°52'0 0.0
2017-Feb-19 05:33N 50°58' E 001°52'0 0.0
2017-Feb-19 04:34N 50°58' E 001°52'0 0.0
2017-Feb-19 03:33N 50°58' E 001°52'0 0.0
2017-Feb-19 02:33N 50°58' E 001°52'0 0.0
2017-Feb-19 01:33N 50°58' E 001°52'0 0.0
2017-Feb-19 00:33N 50°58' E 001°52'0 0.0
2017-Feb-18 23:33N 50°58' E 001°52'0 0.0
2017-Feb-18 22:33N 50°58' E 001°52'0 0.0
2017-Feb-18 21:33N 50°58' E 001°52'1111.1
2017-Feb-18 20:33N 50°59' E 001°35'1211.9
2017-Feb-18 19:32N 51°07' E 001°20'6 6.1
2017-Feb-18 18:34N 51°06' E 001°29'1615.7
2017-Feb-18 17:33N 50°58' E 001°51'0 0.4
2017-Feb-18 16:33N 50°58' E 001°52'1717.4
2017-Feb-18 15:34N 51°05' E 001°26'5 4.6
2017-Feb-18 14:33N 51°07' E 001°20'1414.1
2017-Feb-18 13:33N 50°59' E 001°38'8 8.5
2017-Feb-18 12:34N 50°58' E 001°52'0 0.0
2017-Feb-18 11:33N 50°58' E 001°52'0 0.0
2017-Feb-18 10:34N 50°58' E 001°52'0 0.0
2017-Feb-18 09:33N 50°58' E 001°52'0 0.0
2017-Feb-18 08:33N 50°58' E 001°52'0 0.0
2017-Feb-18 07:33N 50°58' E 001°52'0 0.0
2017-Feb-18 06:33N 50°58' E 001°52'0 0.0
2017-Feb-18 05:34N 50°58' E 001°52'0 0.0
2017-Feb-18 04:33N 50°58' E 001°52'0 0.0
2017-Feb-18 03:33N 50°58' E 001°52'0 0.0
2017-Feb-18 02:33N 50°58' E 001°52'0 0.0
2017-Feb-18 01:33N 50°58' E 001°52'0 0.0
2017-Feb-18 00:33N 50°58' E 001°52'0 0.0
2017-Feb-17 23:34N 50°58' E 001°52'0 0.0
2017-Feb-17 22:33N 50°58' E 001°52'9 9.0
2017-Feb-17 21:33N 51°01' E 001°38'1313.1
2017-Feb-17 20:34N 51°07' E 001°20'0 0.0
2017-Feb-17 19:33N 51°07' E 001°20'9 9.0
2017-Feb-17 18:33N 51°05' E 001°34'1313.1
2017-Feb-17 17:33N 50°58' E 001°52'0 0.4
2017-Feb-17 16:33N 50°58' E 001°51'1818.2
2017-Feb-17 15:33N 51°05' E 001°25'3 3.5
2017-Feb-17 14:34N 51°07' E 001°20'1413.8
2017-Feb-17 13:34N 51°01' E 001°39'8 8.3
2017-Feb-17 12:33N 50°58' E 001°52'0 0.0
2017-Feb-17 11:33N 50°58' E 001°52'0 0.0
2017-Feb-17 10:33N 50°58' E 001°52'0 0.0
2017-Feb-17 09:33N 50°58' E 001°52'0 0.0
2017-Feb-17 08:33N 50°58' E 001°52'0 0.0
2017-Feb-17 07:33N 50°58' E 001°52'0 0.0
2017-Feb-17 06:33N 50°58' E 001°52'0 0.0
2017-Feb-17 05:33N 50°58' E 001°52'0 0.0
2017-Feb-17 04:33N 50°58' E 001°52'0 0.0
2017-Feb-17 03:33N 50°58' E 001°52'0 0.0
2017-Feb-17 02:33N 50°58' E 001°52'0 0.0
2017-Feb-17 01:33N 50°58' E 001°52'0 0.0
2017-Feb-17 00:34N 50°58' E 001°52'0 0.0
2017-Feb-16 23:33N 50°58' E 001°52'0 0.0
2017-Feb-16 22:33N 50°58' E 001°52'0 0.0
2017-Feb-16 21:33N 50°58' E 001°52'1211.7
2017-Feb-16 20:33N 51°01' E 001°34'11 8.8
2017-Feb-16 19:21N 51°07' E 001°20'6 8.0
2017-Feb-16 18:34N 51°05' E 001°29'1615.6
2017-Feb-16 17:33N 50°58' E 001°52'0 0.4
2017-Feb-16 16:33N 50°58' E 001°51'1717.4
2017-Feb-16 15:33N 51°04' E 001°25'4 4.1
2017-Feb-16 14:28N 51°07' E 001°20'1415.7
2017-Feb-16 13:33N 51°00' E 001°40'8 7.8
2017-Feb-16 12:33N 50°58' E 001°52'0 0.0
2017-Feb-16 11:33N 50°58' E 001°52'0 0.0
2017-Feb-16 10:33N 50°58' E 001°52'0 0.0
2017-Feb-16 09:33N 50°58' E 001°52'0 0.0
2017-Feb-16 08:33N 50°58' E 001°52'0 0.0
2017-Feb-16 07:33N 50°58' E 001°52'0 0.0
2017-Feb-16 06:33N 50°58' E 001°52'0 0.0
2017-Feb-16 05:33N 50°58' E 001°52'0 0.0
2017-Feb-16 04:33N 50°58' E 001°52'0 0.0
2017-Feb-16 03:33N 50°58' E 001°52'0 0.0
2017-Feb-16 02:33N 50°58' E 001°52'0 0.0
2017-Feb-16 01:33N 50°58' E 001°52'0 0.0
2017-Feb-16 00:33N 50°58' E 001°52'0 0.0
2017-Feb-15 23:33N 50°58' E 001°52'0 0.0
2017-Feb-15 22:33N 50°58' E 001°52'0 0.0
2017-Feb-15 21:33N 50°58' E 001°52'9 9.1
2017-Feb-15 20:33N 50°59' E 001°37'1410.8
2017-Feb-15 19:18N 51°07' E 001°20'4 5.2
2017-Feb-15 18:34N 51°06' E 001°26'1817.8
2017-Feb-15 17:33N 50°58' E 001°51'0 0.3
2017-Feb-15 16:33N 50°58' E 001°52'1515.2
2017-Feb-15 15:33N 51°03' E 001°29'4 2.0
2017-Feb-15 13:34N 51°07' E 001°25'1818.0
2017-Feb-15 12:33N 50°58' E 001°51'1 0.1
2017-Feb-15 04:33N 50°58' E 001°52'0 0.0
2017-Feb-15 03:34N 50°58' E 001°52'0 0.0
2017-Feb-15 02:33N 50°58' E 001°52'0 0.0
2017-Feb-15 01:33N 50°58' E 001°52'0 0.0
2017-Feb-15 00:33N 50°58' E 001°52'0 0.0
2017-Feb-14 23:34N 50°58' E 001°52'0 0.0
2017-Feb-14 22:33N 50°58' E 001°52'0 0.0
2017-Feb-14 21:33N 50°58' E 001°52'1111.1
2017-Feb-14 20:33N 51°00' E 001°34'1111.5
2017-Feb-14 19:33N 51°07' E 001°20'7 6.7
2017-Feb-14 18:34N 51°05' E 001°30'1515.2
2017-Feb-14 17:33N 50°58' E 001°52'2 2.0
2017-Feb-14 16:33N 50°58' E 001°48'1919.1
2017-Feb-14 15:33N 51°07' E 001°22'1 1.0
2017-Feb-14 14:29N 51°07' E 001°20'1415.1
2017-Feb-14 13:33N 51°01' E 001°39'8 8.1
2017-Feb-14 12:33N 50°58' E 001°52'0 0.0
2017-Feb-14 11:33N 50°58' E 001°52'0 0.0
2017-Feb-14 10:33N 50°58' E 001°52'0 0.0
2017-Feb-14 09:33N 50°58' E 001°52'0 0.0
2017-Feb-14 08:33N 50°58' E 001°52'0 0.0
2017-Feb-14 07:33N 50°58' E 001°52'0 0.0
2017-Feb-14 06:33N 50°58' E 001°52'0 0.0
2017-Feb-14 05:33N 50°58' E 001°52'0 0.0
2017-Feb-14 04:33N 50°58' E 001°52'0 0.0
2017-Feb-14 03:33N 50°58' E 001°52'0 0.0
2017-Feb-14 02:33N 50°58' E 001°52'0 0.0
2017-Feb-14 01:33N 50°58' E 001°52'0 0.0
2017-Feb-14 00:33N 50°58' E 001°52'0 0.0
2017-Feb-13 23:33N 50°58' E 001°52'0 0.0
2017-Feb-13 22:33N 50°58' E 001°52'5 4.8
2017-Feb-13 21:33N 50°58' E 001°44'1615.9
2017-Feb-13 20:34N 51°06' E 001°23'2 2.0
2017-Feb-13 19:33N 51°07' E 001°20'1212.4
2017-Feb-13 18:34N 51°02' E 001°37'10 9.6
2017-Feb-13 17:33N 50°58' E 001°52'9 8.6
2017-Feb-13 16:33N 50°60' E 001°38'1413.9
2017-Feb-13 15:33N 51°07' E 001°20'0 0.0
2017-Feb-13 14:34N 51°07' E 001°20'1414.3
2017-Feb-13 13:34N 51°01' E 001°40'8 7.6
2017-Feb-13 12:33N 50°58' E 001°51'0 0.3
2017-Feb-13 11:33N 50°58' E 001°52'0 0.0
2017-Feb-13 10:34N 50°58' E 001°52'0 0.0
2017-Feb-13 09:33N 50°58' E 001°52'0 0.0
2017-Feb-13 08:33N 50°58' E 001°52'0 0.0
2017-Feb-13 07:33N 50°58' E 001°52'0 0.0
2017-Feb-13 06:33N 50°58' E 001°52'0 0.0
2017-Feb-13 05:33N 50°58' E 001°52'0 0.0
2017-Feb-13 04:33N 50°58' E 001°52'0 0.0
2017-Feb-13 03:33N 50°58' E 001°52'0 0.0
2017-Feb-13 02:33N 50°58' E 001°52'  

Dump ship's entire track history